This is the latest recevied weather packets stored in our database for station/object W5HKR. If no packets are shown the sender has not sent any weather packets the latest 10 day(s).
| Time | Temp. | Humidity | Pressure | Rain* | Wind** | Luminosity | Snow |
|---|---|---|---|---|---|---|---|
| 1778107704 | 18.33° C | 91% | 990.6 hPa | 0 mm | - | - | - |
| 1778107403 | 18.33° C | 91% | 990.6 hPa | 0 mm | - | - | - |
| 1778107196 | 18.33° C | 91% | 990.6 hPa | 0 mm | - | - | - |
| 1778107105 | 25.56° C | 68% | 981.7 hPa | 0 mm | - | - | - |
| 1778106805 | 26.11° C | 69% | 981.4 hPa | 0 mm | - | - | - |
| 1778106504 | 18.33° C | 91% | 990.6 hPa | 0 mm | - | - | - |
| 1778106204 | 26.67° C | 69% | 980.8 hPa | 0 mm | - | - | - |
| 1778106114 | 26.11° C | 69% | 981.3 hPa | 0 mm | - | - | - |
| 1778105904 | 26.67° C | 68% | 981.2 hPa | 0 mm | - | - | - |
| 1778105603 | 26.67° C | 68% | 981.2 hPa | 0 mm | - | - | - |
| 1778105303 | 27.22° C | 69% | 981.1 hPa | 0 mm | - | - | - |
| 1778105036 | 27.22° C | 69% | 981.1 hPa | 0 mm | - | - | - |
| 1778105004 | 27.78° C | 69% | 981.2 hPa | 0 mm | - | - | - |
| 1778104705 | 18.33° C | 91% | 990.6 hPa | 0 mm | - | - | - |
| 1778104403 | 18.33° C | 91% | 990.6 hPa | 0 mm | - | - | - |
| 1778104104 | 18.33° C | 91% | 990.6 hPa | 0 mm | - | - | - |
| 1778103954 | 18.33° C | 91% | 990.6 hPa | 0 mm | - | - | - |
| 1778103804 | 18.33° C | 91% | 990.6 hPa | 0 mm | - | - | - |
| 1778103505 | 18.33° C | 91% | 990.6 hPa | 0 mm | - | - | - |
| 1778103203 | 18.33° C | 91% | 990.6 hPa | 0 mm | - | - | - |
| 1778102874 | 27.78° C | 71% | 981 hPa | 0 mm | - | - | - |
| 1778102605 | 27.78° C | 71% | 981 hPa | 0 mm | - | - | - |
| 1778102303 | 18.33° C | 91% | 990.6 hPa | 0 mm | - | - | - |
| 1778102004 | 18.33° C | 91% | 990.6 hPa | 0 mm | - | - | - |
| 1778101795 | 18.33° C | 91% | 990.6 hPa | 0 mm | - | - | - |
* Rain latest hour (hover to see other rain measurements)
** Current wind speed in m/s (hover to see current wind gust speed)